sensor_id;sensor_type;location;lat;lon;timestamp;pressure;altitude;pressure_sealevel;temperature;humidity
12219;BME280;6172;42.646;23.344;2022-07-06T00:01:27;94603.31;;;17.38;100.00
12219;BME280;6172;42.646;23.344;2022-07-06T00:03:55;94604.97;;;17.26;100.00
12219;BME280;6172;42.646;23.344;2022-07-06T00:06:22;94597.78;;;17.11;100.00
12219;BME280;6172;42.646;23.344;2022-07-06T00:08:50;94611.41;;;17.23;100.00
12219;BME280;6172;42.646;23.344;2022-07-06T00:11:17;94617.53;;;17.27;100.00
12219;BME280;6172;42.646;23.344;2022-07-06T00:13:47;94610.03;;;17.28;100.00
12219;BME280;6172;42.646;23.344;2022-07-06T00:16:30;94620.28;;;17.27;100.00
12219;BME280;6172;42.646;23.344;2022-07-06T00:19:20;94639.25;;;17.25;100.00
12219;BME280;6172;42.646;23.344;2022-07-06T00:22:10;94639.41;;;17.49;100.00
12219;BME280;6172;42.646;23.344;2022-07-06T00:24:44;94642.22;;;17.58;100.00
12219;BME280;6172;42.646;23.344;2022-07-06T00:27:21;94650.03;;;17.69;100.00
12219;BME280;6172;42.646;23.344;2022-07-06T00:33:09;94670.06;;;17.78;100.00
12219;BME280;6172;42.646;23.344;2022-07-06T00:35:37;94675.44;;;17.82;100.00
12219;BME280;6172;42.646;23.344;2022-07-06T00:38:04;94680.66;;;17.89;100.00
12219;BME280;6172;42.646;23.344;2022-07-06T00:40:31;94678.19;;;18.00;100.00
12219;BME280;6172;42.646;23.344;2022-07-06T00:42:59;94679.28;;;17.93;100.00
12219;BME280;6172;42.646;23.344;2022-07-06T00:45:26;94675.88;;;17.98;100.00
12219;BME280;6172;42.646;23.344;2022-07-06T00:47:53;94676.34;;;18.15;100.00
12219;BME280;6172;42.646;23.344;2022-07-06T00:50:22;94678.78;;;18.13;100.00
12219;BME280;6172;42.646;23.344;2022-07-06T00:52:53;94666.81;;;18.16;100.00
12219;BME280;6172;42.646;23.344;2022-07-06T00:55:21;94663.13;;;18.19;100.00
12219;BME280;6172;42.646;23.344;2022-07-06T00:57:49;94669.72;;;18.21;100.00
12219;BME280;6172;42.646;23.344;2022-07-06T01:00:18;94660.66;;;18.30;100.00
12219;BME280;6172;42.646;23.344;2022-07-06T01:02:46;94666.19;;;18.21;100.00
12219;BME280;6172;42.646;23.344;2022-07-06T01:05:14;94657.91;;;18.21;100.00
12219;BME280;6172;42.646;23.344;2022-07-06T01:07:45;94645.94;;;18.24;100.00
12219;BME280;6172;42.646;23.344;2022-07-06T01:10:13;94635.22;;;18.26;100.00
12219;BME280;6172;42.646;23.344;2022-07-06T01:12:42;94627.28;;;18.19;100.00
12219;BME280;6172;42.646;23.344;2022-07-06T01:15:11;94631.72;;;18.16;100.00
12219;BME280;6172;42.646;23.344;2022-07-06T01:17:39;94629.31;;;18.00;100.00
12219;BME280;6172;42.646;23.344;2022-07-06T01:20:10;94638.00;;;18.17;100.00
12219;BME280;6172;42.646;23.344;2022-07-06T01:22:37;94636.16;;;18.14;100.00
12219;BME280;6172;42.646;23.344;2022-07-06T01:25:06;94628.53;;;18.09;100.00
12219;BME280;6172;42.646;23.344;2022-07-06T01:27:34;94640.47;;;18.06;100.00
12219;BME280;6172;42.646;23.344;2022-07-06T01:30:05;94642.00;;;18.07;100.00
12219;BME280;6172;42.646;23.344;2022-07-06T01:32:32;94638.63;;;18.12;100.00
12219;BME280;6172;42.646;23.344;2022-07-06T01:35:00;94639.25;;;18.07;100.00
12219;BME280;6172;42.646;23.344;2022-07-06T01:37:29;94637.13;;;18.02;100.00
12219;BME280;6172;42.646;23.344;2022-07-06T01:39:58;94633.13;;;18.12;100.00
12219;BME280;6172;42.646;23.344;2022-07-06T01:42:26;94632.06;;;18.00;100.00
12219;BME280;6172;42.646;23.344;2022-07-06T01:44:53;94628.53;;;17.91;100.00
12219;BME280;6172;42.646;23.344;2022-07-06T01:47:20;94635.28;;;17.99;100.00
12219;BME280;6172;42.646;23.344;2022-07-06T01:49:49;94633.16;;;17.85;100.00
12219;BME280;6172;42.646;23.344;2022-07-06T01:52:17;94643.41;;;17.93;100.00
12219;BME280;6172;42.646;23.344;2022-07-06T01:54:46;94645.41;;;18.02;100.00
12219;BME280;6172;42.646;23.344;2022-07-06T01:57:13;94638.81;;;17.90;100.00
12219;BME280;6172;42.646;23.344;2022-07-06T01:59:40;94644.94;;;17.94;100.00
12219;BME280;6172;42.646;23.344;2022-07-06T02:02:07;94653.06;;;17.80;100.00
12219;BME280;6172;42.646;23.344;2022-07-06T02:04:34;94646.03;;;17.70;100.00
12219;BME280;6172;42.646;23.344;2022-07-06T02:07:01;94653.84;;;17.80;100.00
12219;BME280;6172;42.646;23.344;2022-07-06T02:09:28;94654.59;;;17.81;100.00
12219;BME280;6172;42.646;23.344;2022-07-06T02:11:57;94650.63;;;17.73;100.00
12219;BME280;6172;42.646;23.344;2022-07-06T02:14:26;94646.63;;;17.74;100.00
12219;BME280;6172;42.646;23.344;2022-07-06T02:16:53;94648.34;;;17.62;100.00
12219;BME280;6172;42.646;23.344;2022-07-06T02:19:20;94639.88;;;17.75;100.00
12219;BME280;6172;42.646;23.344;2022-07-06T02:21:47;94645.72;;;17.77;100.00
12219;BME280;6172;42.646;23.344;2022-07-06T02:24:14;94632.56;;;17.72;100.00
12219;BME280;6172;42.646;23.344;2022-07-06T02:26:42;94638.06;;;17.81;100.00
12219;BME280;6172;42.646;23.344;2022-07-06T02:29:13;94629.34;;;17.73;100.00
12219;BME280;6172;42.646;23.344;2022-07-06T02:31:41;94637.13;;;17.75;100.00
12219;BME280;6172;42.646;23.344;2022-07-06T02:34:08;94633.00;;;17.79;100.00
12219;BME280;6172;42.646;23.344;2022-07-06T02:36:40;94628.25;;;17.53;100.00
12219;BME280;6172;42.646;23.344;2022-07-06T02:39:07;94629.63;;;17.48;100.00
12219;BME280;6172;42.646;23.344;2022-07-06T02:41:34;94622.44;;;17.51;100.00
12219;BME280;6172;42.646;23.344;2022-07-06T02:44:01;94626.00;;;17.60;100.00
12219;BME280;6172;42.646;23.344;2022-07-06T02:46:30;94626.56;;;17.28;100.00
12219;BME280;6172;42.646;23.344;2022-07-06T02:48:57;94636.97;;;17.24;100.00
12219;BME280;6172;42.646;23.344;2022-07-06T02:51:24;94634.03;;;17.27;100.00
12219;BME280;6172;42.646;23.344;2022-07-06T02:53:51;94636.00;;;17.09;100.00
12219;BME280;6172;42.646;23.344;2022-07-06T02:56:19;94644.75;;;17.16;100.00
12219;BME280;6172;42.646;23.344;2022-07-06T02:58:46;94634.97;;;17.24;100.00
12219;BME280;6172;42.646;23.344;2022-07-06T03:01:13;94631.91;;;17.13;100.00
12219;BME280;6172;42.646;23.344;2022-07-06T03:03:41;94623.44;;;16.90;100.00
12219;BME280;6172;42.646;23.344;2022-07-06T03:06:08;94639.50;;;16.91;100.00
12219;BME280;6172;42.646;23.344;2022-07-06T03:08:35;94646.84;;;16.85;100.00
12219;BME280;6172;42.646;23.344;2022-07-06T03:11:03;94639.19;;;16.89;100.00
12219;BME280;6172;42.646;23.344;2022-07-06T03:13:31;94636.94;;;17.06;100.00
12219;BME280;6172;42.646;23.344;2022-07-06T03:15:57;94636.19;;;17.05;100.00
12219;BME280;6172;42.646;23.344;2022-07-06T03:18:24;94634.03;;;17.09;100.00
12219;BME280;6172;42.646;23.344;2022-07-06T03:20:53;94646.09;;;16.94;100.00
12219;BME280;6172;42.646;23.344;2022-07-06T03:23:20;94645.63;;;17.04;100.00
12219;BME280;6172;42.646;23.344;2022-07-06T03:25:47;94650.56;;;17.09;100.00
12219;BME280;6172;42.646;23.344;2022-07-06T03:28:14;94663.72;;;17.14;100.00
12219;BME280;6172;42.646;23.344;2022-07-06T03:30:41;94650.28;;;17.25;100.00
12219;BME280;6172;42.646;23.344;2022-07-06T03:33:08;94655.63;;;17.29;100.00
12219;BME280;6172;42.646;23.344;2022-07-06T03:35:35;94663.31;;;17.34;100.00
12219;BME280;6172;42.646;23.344;2022-07-06T03:38:05;94664.03;;;17.34;100.00
12219;BME280;6172;42.646;23.344;2022-07-06T03:40:33;94666.50;;;17.32;100.00
12219;BME280;6172;42.646;23.344;2022-07-06T03:43:02;94663.75;;;17.42;100.00
12219;BME280;6172;42.646;23.344;2022-07-06T03:45:29;94669.72;;;17.49;100.00
12219;BME280;6172;42.646;23.344;2022-07-06T03:47:56;94668.81;;;17.52;100.00
12219;BME280;6172;42.646;23.344;2022-07-06T03:50:24;94659.81;;;17.61;100.00
12219;BME280;6172;42.646;23.344;2022-07-06T03:52:50;94661.38;;;17.62;100.00
12219;BME280;6172;42.646;23.344;2022-07-06T03:55:19;94653.69;;;17.66;100.00
12219;BME280;6172;42.646;23.344;2022-07-06T03:57:46;94650.34;;;17.62;100.00
12219;BME280;6172;42.646;23.344;2022-07-06T04:00:14;94647.25;;;17.60;100.00
12219;BME280;6172;42.646;23.344;2022-07-06T04:02:41;94644.81;;;17.62;100.00
12219;BME280;6172;42.646;23.344;2022-07-06T04:05:09;94634.06;;;17.55;100.00
12219;BME280;6172;42.646;23.344;2022-07-06T04:07:36;94641.28;;;17.61;100.00
12219;BME280;6172;42.646;23.344;2022-07-06T04:10:03;94640.66;;;17.75;100.00
12219;BME280;6172;42.646;23.344;2022-07-06T04:12:39;94647.25;;;17.78;100.00
12219;BME280;6172;42.646;23.344;2022-07-06T04:15:09;94642.66;;;17.93;100.00
12219;BME280;6172;42.646;23.344;2022-07-06T04:17:36;94640.81;;;17.81;100.00
12219;BME280;6172;42.646;23.344;2022-07-06T04:20:33;94627.81;;;17.90;100.00
12219;BME280;6172;42.646;23.344;2022-07-06T04:23:02;94630.19;;;18.15;100.00
12219;BME280;6172;42.646;23.344;2022-07-06T04:25:29;94626.69;;;18.15;100.00
12219;BME280;6172;42.646;23.344;2022-07-06T04:27:58;94635.81;;;18.30;100.00
12219;BME280;6172;42.646;23.344;2022-07-06T04:30:26;94632.63;;;18.22;100.00
12219;BME280;6172;42.646;23.344;2022-07-06T04:32:53;94627.81;;;18.50;100.00
12219;BME280;6172;42.646;23.344;2022-07-06T04:35:21;94628.72;;;18.56;100.00
12219;BME280;6172;42.646;23.344;2022-07-06T04:37:52;94624.34;;;18.73;100.00
12219;BME280;6172;42.646;23.344;2022-07-06T04:40:20;94627.06;;;18.82;100.00
12219;BME280;6172;42.646;23.344;2022-07-06T04:42:49;94626.56;;;18.92;100.00
12219;BME280;6172;42.646;23.344;2022-07-06T04:45:18;94622.44;;;18.88;100.00
12219;BME280;6172;42.646;23.344;2022-07-06T04:47:45;94634.84;;;18.92;100.00
12219;BME280;6172;42.646;23.344;2022-07-06T04:50:18;94638.19;;;19.20;100.00
12219;BME280;6172;42.646;23.344;2022-07-06T04:52:45;94636.44;;;19.08;100.00
12219;BME280;6172;42.646;23.344;2022-07-06T04:55:13;94640.34;;;19.25;100.00
12219;BME280;6172;42.646;23.344;2022-07-06T04:57:40;94653.22;;;19.28;100.00
12219;BME280;6172;42.646;23.344;2022-07-06T05:00:08;94653.13;;;19.13;100.00
12219;BME280;6172;42.646;23.344;2022-07-06T05:02:45;94655.63;;;18.70;100.00
12219;BME280;6172;42.646;23.344;2022-07-06T05:05:13;94665.06;;;18.87;100.00
12219;BME280;6172;42.646;23.344;2022-07-06T05:07:40;94669.56;;;18.75;100.00
12219;BME280;6172;42.646;23.344;2022-07-06T05:10:08;94675.75;;;18.61;100.00
12219;BME280;6172;42.646;23.344;2022-07-06T05:12:36;94668.97;;;18.71;100.00
12219;BME280;6172;42.646;23.344;2022-07-06T05:15:04;94667.97;;;18.92;100.00
12219;BME280;6172;42.646;23.344;2022-07-06T05:17:32;94665.72;;;19.05;100.00
12219;BME280;6172;42.646;23.344;2022-07-06T05:20:02;94677.22;;;19.13;100.00
12219;BME280;6172;42.646;23.344;2022-07-06T05:22:30;94669.13;;;19.09;100.00
12219;BME280;6172;42.646;23.344;2022-07-06T05:24:58;94672.00;;;19.15;100.00
12219;BME280;6172;42.646;23.344;2022-07-06T05:27:25;94678.44;;;19.12;100.00
12219;BME280;6172;42.646;23.344;2022-07-06T05:29:53;94680.44;;;19.11;100.00
12219;BME280;6172;42.646;23.344;2022-07-06T05:32:20;94688.94;;;18.99;100.00
12219;BME280;6172;42.646;23.344;2022-07-06T05:34:47;94685.09;;;19.38;100.00
12219;BME280;6172;42.646;23.344;2022-07-06T05:37:15;94676.53;;;19.74;100.00
12219;BME280;6172;42.646;23.344;2022-07-06T05:39:42;94669.59;;;19.79;100.00
12219;BME280;6172;42.646;23.344;2022-07-06T05:42:15;94672.47;;;19.84;100.00
12219;BME280;6172;42.646;23.344;2022-07-06T05:44:47;94672.19;;;19.97;100.00
12219;BME280;6172;42.646;23.344;2022-07-06T05:47:15;94679.53;;;20.23;100.00
12219;BME280;6172;42.646;23.344;2022-07-06T05:49:59;94668.72;;;20.40;100.00
12219;BME280;6172;42.646;23.344;2022-07-06T05:52:44;94679.72;;;20.63;100.00
12219;BME280;6172;42.646;23.344;2022-07-06T05:55:12;94672.66;;;20.33;100.00
12219;BME280;6172;42.646;23.344;2022-07-06T05:57:39;94673.59;;;20.59;100.00
12219;BME280;6172;42.646;23.344;2022-07-06T06:00:09;94672.91;;;20.64;100.00
12219;BME280;6172;42.646;23.344;2022-07-06T06:02:38;94665.28;;;21.57;100.00
12219;BME280;6172;42.646;23.344;2022-07-06T06:05:06;94654.81;;;22.33;100.00
12219;BME280;6172;42.646;23.344;2022-07-06T06:07:35;94656.63;;;22.67;100.00
12219;BME280;6172;42.646;23.344;2022-07-06T06:10:07;94654.00;;;22.58;100.00
12219;BME280;6172;42.646;23.344;2022-07-06T06:12:35;94654.25;;;22.54;100.00
12219;BME280;6172;42.646;23.344;2022-07-06T06:15:03;94644.66;;;22.30;100.00
12219;BME280;6172;42.646;23.344;2022-07-06T06:17:31;94660.53;;;22.04;100.00
12219;BME280;6172;42.646;23.344;2022-07-06T06:19:59;94661.09;;;21.88;100.00
12219;BME280;6172;42.646;23.344;2022-07-06T06:22:26;94658.59;;;21.49;100.00
12219;BME280;6172;42.646;23.344;2022-07-06T06:24:53;94666.47;;;21.16;100.00
12219;BME280;6172;42.646;23.344;2022-07-06T06:27:23;94663.63;;;21.11;100.00
12219;BME280;6172;42.646;23.344;2022-07-06T06:29:54;94655.59;;;20.98;100.00
12219;BME280;6172;42.646;23.344;2022-07-06T06:32:21;94670.91;;;20.79;100.00
12219;BME280;6172;42.646;23.344;2022-07-06T06:34:48;94665.09;;;20.77;100.00
12219;BME280;6172;42.646;23.344;2022-07-06T06:37:15;94668.81;;;20.89;100.00
12219;BME280;6172;42.646;23.344;2022-07-06T06:39:46;94657.56;;;20.63;100.00
12219;BME280;6172;42.646;23.344;2022-07-06T06:42:15;94656.00;;;20.77;100.00
12219;BME280;6172;42.646;23.344;2022-07-06T06:44:44;94664.81;;;20.46;100.00
12219;BME280;6172;42.646;23.344;2022-07-06T06:47:13;94665.78;;;20.29;100.00
12219;BME280;6172;42.646;23.344;2022-07-06T06:49:40;94662.91;;;20.52;100.00
12219;BME280;6172;42.646;23.344;2022-07-06T06:52:07;94664.44;;;20.68;100.00
12219;BME280;6172;42.646;23.344;2022-07-06T06:54:35;94659.56;;;20.63;100.00
12219;BME280;6172;42.646;23.344;2022-07-06T06:57:03;94669.22;;;20.53;100.00
12219;BME280;6172;42.646;23.344;2022-07-06T06:59:30;94657.34;;;20.52;100.00
12219;BME280;6172;42.646;23.344;2022-07-06T07:01:59;94661.09;;;20.49;100.00
12219;BME280;6172;42.646;23.344;2022-07-06T07:04:35;94652.69;;;20.58;100.00
12219;BME280;6172;42.646;23.344;2022-07-06T07:07:02;94659.84;;;20.79;100.00
12219;BME280;6172;42.646;23.344;2022-07-06T07:09:29;94658.09;;;20.96;100.00
12219;BME280;6172;42.646;23.344;2022-07-06T07:11:56;94655.56;;;21.13;100.00
12219;BME280;6172;42.646;23.344;2022-07-06T07:14:23;94653.63;;;21.19;100.00
12219;BME280;6172;42.646;23.344;2022-07-06T07:16:50;94656.25;;;21.08;100.00
12219;BME280;6172;42.646;23.344;2022-07-06T07:19:19;94666.13;;;20.94;100.00
12219;BME280;6172;42.646;23.344;2022-07-06T07:21:47;94660.13;;;20.81;100.00
12219;BME280;6172;42.646;23.344;2022-07-06T07:24:15;94649.25;;;21.12;100.00
12219;BME280;6172;42.646;23.344;2022-07-06T07:26:42;94656.38;;;21.33;100.00
12219;BME280;6172;42.646;23.344;2022-07-06T07:29:09;94657.31;;;21.30;100.00
12219;BME280;6172;42.646;23.344;2022-07-06T07:31:36;94653.88;;;21.01;100.00
12219;BME280;6172;42.646;23.344;2022-07-06T07:34:03;94651.41;;;21.23;100.00
12219;BME280;6172;42.646;23.344;2022-07-06T07:36:32;94649.94;;;21.07;100.00
12219;BME280;6172;42.646;23.344;2022-07-06T07:39:01;94650.84;;;20.70;100.00
12219;BME280;6172;42.646;23.344;2022-07-06T07:41:28;94654.25;;;21.08;100.00
12219;BME280;6172;42.646;23.344;2022-07-06T07:43:56;94651.00;;;21.30;100.00
12219;BME280;6172;42.646;23.344;2022-07-06T07:46:23;94645.50;;;21.70;100.00
12219;BME280;6172;42.646;23.344;2022-07-06T07:48:53;94632.00;;;22.03;100.00
12219;BME280;6172;42.646;23.344;2022-07-06T07:51:20;94639.13;;;22.10;100.00
12219;BME280;6172;42.646;23.344;2022-07-06T07:53:49;94633.19;;;21.97;100.00
12219;BME280;6172;42.646;23.344;2022-07-06T07:56:16;94627.66;;;22.48;100.00
12219;BME280;6172;42.646;23.344;2022-07-06T07:58:45;94627.75;;;23.26;100.00
12219;BME280;6172;42.646;23.344;2022-07-06T08:01:19;94628.72;;;24.57;100.00
12219;BME280;6172;42.646;23.344;2022-07-06T08:03:47;94625.84;;;26.13;84.31
12219;BME280;6172;42.646;23.344;2022-07-06T08:06:17;94610.56;;;27.49;69.24
12219;BME280;6172;42.646;23.344;2022-07-06T08:09:01;94610.44;;;28.03;66.83
12219;BME280;6172;42.646;23.344;2022-07-06T08:11:31;94616.50;;;28.25;66.48
12219;BME280;6172;42.646;23.344;2022-07-06T08:13:58;94624.84;;;28.31;67.53
12219;BME280;6172;42.646;23.344;2022-07-06T08:16:25;94619.53;;;29.54;57.93
12219;BME280;6172;42.646;23.344;2022-07-06T08:18:53;94630.81;;;29.09;58.18
12219;BME280;6172;42.646;23.344;2022-07-06T08:21:21;94624.81;;;29.00;56.16
12219;BME280;6172;42.646;23.344;2022-07-06T08:23:49;94620.41;;;29.88;52.41
12219;BME280;6172;42.646;23.344;2022-07-06T08:26:18;94627.03;;;29.64;54.12
12219;BME280;6172;42.646;23.344;2022-07-06T08:28:47;94624.69;;;28.92;56.88
12219;BME280;6172;42.646;23.344;2022-07-06T08:31:15;94621.72;;;27.97;60.67
12219;BME280;6172;42.646;23.344;2022-07-06T08:33:42;94623.22;;;27.26;68.48
12219;BME280;6172;42.646;23.344;2022-07-06T08:36:10;94632.03;;;27.84;67.21
12219;BME280;6172;42.646;23.344;2022-07-06T08:38:42;94627.03;;;28.38;63.25
12219;BME280;6172;42.646;23.344;2022-07-06T08:41:30;94622.31;;;28.46;60.07
12219;BME280;6172;42.646;23.344;2022-07-06T08:43:58;94621.88;;;27.81;59.62
12219;BME280;6172;42.646;23.344;2022-07-06T08:46:29;94615.19;;;27.17;63.62
12219;BME280;6172;42.646;23.344;2022-07-06T08:48:57;94610.66;;;26.85;66.94
12219;BME280;6172;42.646;23.344;2022-07-06T08:51:38;94620.38;;;26.78;69.88
12219;BME280;6172;42.646;23.344;2022-07-06T08:54:07;94621.75;;;26.61;74.75
12219;BME280;6172;42.646;23.344;2022-07-06T08:56:36;94607.94;;;27.57;66.40
12219;BME280;6172;42.646;23.344;2022-07-06T08:59:04;94609.81;;;27.91;66.97
12219;BME280;6172;42.646;23.344;2022-07-06T09:01:35;94623.91;;;27.62;69.83
12219;BME280;6172;42.646;23.344;2022-07-06T09:04:06;94605.63;;;26.78;72.89
12219;BME280;6172;42.646;23.344;2022-07-06T09:06:35;94609.69;;;27.36;70.66
12219;BME280;6172;42.646;23.344;2022-07-06T09:09:05;94612.19;;;27.63;68.94
12219;BME280;6172;42.646;23.344;2022-07-06T09:11:36;94626.81;;;27.51;69.06
12219;BME280;6172;42.646;23.344;2022-07-06T09:14:03;94614.78;;;27.80;67.32
12219;BME280;6172;42.646;23.344;2022-07-06T09:16:30;94612.53;;;27.54;69.17
12219;BME280;6172;42.646;23.344;2022-07-06T09:18:57;94611.75;;;26.71;77.08
12219;BME280;6172;42.646;23.344;2022-07-06T09:21:26;94616.56;;;25.94;79.68
12219;BME280;6172;42.646;23.344;2022-07-06T09:23:56;94624.28;;;25.72;83.46
12219;BME280;6172;42.646;23.344;2022-07-06T09:26:24;94612.50;;;25.05;91.30
12219;BME280;6172;42.646;23.344;2022-07-06T09:28:55;94619.06;;;25.24;91.90
12219;BME280;6172;42.646;23.344;2022-07-06T09:31:24;94625.69;;;25.05;95.26
12219;BME280;6172;42.646;23.344;2022-07-06T09:33:56;94627.22;;;25.06;97.55
12219;BME280;6172;42.646;23.344;2022-07-06T09:36:43;94615.50;;;24.30;100.00
12219;BME280;6172;42.646;23.344;2022-07-06T09:39:31;94621.38;;;24.71;97.72
12219;BME280;6172;42.646;23.344;2022-07-06T09:41:59;94616.78;;;24.35;100.00
12219;BME280;6172;42.646;23.344;2022-07-06T09:44:29;94613.47;;;24.20;100.00
12219;BME280;6172;42.646;23.344;2022-07-06T09:46:58;94616.28;;;24.31;100.00
12219;BME280;6172;42.646;23.344;2022-07-06T09:49:25;94595.75;;;25.22;100.00
12219;BME280;6172;42.646;23.344;2022-07-06T09:51:55;94604.09;;;26.42;89.33
12219;BME280;6172;42.646;23.344;2022-07-06T09:54:23;94594.16;;;27.35;77.57
12219;BME280;6172;42.646;23.344;2022-07-06T09:56:51;94594.72;;;27.28;70.54
12219;BME280;6172;42.646;23.344;2022-07-06T09:59:19;94593.88;;;28.23;67.96
12219;BME280;6172;42.646;23.344;2022-07-06T10:01:52;94589.19;;;28.63;64.06
12219;BME280;6172;42.646;23.344;2022-07-06T10:04:20;94594.91;;;28.39;64.51
12219;BME280;6172;42.646;23.344;2022-07-06T10:06:48;94599.50;;;29.05;61.95
12219;BME280;6172;42.646;23.344;2022-07-06T10:09:16;94594.59;;;29.37;60.18
12219;BME280;6172;42.646;23.344;2022-07-06T10:11:48;94592.63;;;29.32;57.13
12219;BME280;6172;42.646;23.344;2022-07-06T10:14:18;94592.50;;;29.38;56.63
12219;BME280;6172;42.646;23.344;2022-07-06T10:16:49;94587.44;;;29.36;55.43
12219;BME280;6172;42.646;23.344;2022-07-06T10:19:18;94581.69;;;30.07;52.08
12219;BME280;6172;42.646;23.344;2022-07-06T10:21:45;94583.63;;;30.25;52.93
12219;BME280;6172;42.646;23.344;2022-07-06T10:24:13;94582.81;;;29.91;52.33
12219;BME280;6172;42.646;23.344;2022-07-06T10:26:41;94581.59;;;29.99;52.57
12219;BME280;6172;42.646;23.344;2022-07-06T10:29:09;94574.69;;;30.13;50.63
12219;BME280;6172;42.646;23.344;2022-07-06T10:31:40;94578.06;;;29.73;52.78
12219;BME280;6172;42.646;23.344;2022-07-06T10:34:11;94579.59;;;29.61;51.73
12219;BME280;6172;42.646;23.344;2022-07-06T10:36:39;94586.09;;;29.69;52.95
12219;BME280;6172;42.646;23.344;2022-07-06T10:39:07;94583.34;;;29.89;52.29
12219;BME280;6172;42.646;23.344;2022-07-06T10:41:51;94574.75;;;29.61;53.13
12219;BME280;6172;42.646;23.344;2022-07-06T10:44:21;94581.09;;;29.36;54.98
12219;BME280;6172;42.646;23.344;2022-07-06T10:46:52;94577.41;;;28.33;59.36
12219;BME280;6172;42.646;23.344;2022-07-06T10:49:22;94567.56;;;28.27;59.39
12219;BME280;6172;42.646;23.344;2022-07-06T10:51:50;94576.56;;;28.38;58.78
12219;BME280;6172;42.646;23.344;2022-07-06T10:54:18;94567.13;;;27.19;67.45
12219;BME280;6172;42.646;23.344;2022-07-06T10:56:47;94571.16;;;26.64;69.48
12219;BME280;6172;42.646;23.344;2022-07-06T10:59:17;94564.44;;;27.32;65.24
12219;BME280;6172;42.646;23.344;2022-07-06T11:02:12;94569.41;;;26.91;71.69
12219;BME280;6172;42.646;23.344;2022-07-06T11:04:42;94570.06;;;26.73;71.44
12219;BME280;6172;42.646;23.344;2022-07-06T11:07:13;94575.31;;;26.87;72.23
12219;BME280;6172;42.646;23.344;2022-07-06T11:09:53;94563.47;;;26.70;71.60
12219;BME280;6172;42.646;23.344;2022-07-06T11:12:22;94570.44;;;26.58;71.14
12219;BME280;6172;42.646;23.344;2022-07-06T11:14:51;94563.06;;;26.61;70.42
12219;BME280;6172;42.646;23.344;2022-07-06T11:17:18;94571.69;;;26.63;74.38
12219;BME280;6172;42.646;23.344;2022-07-06T11:19:55;94577.00;;;26.96;67.23
12219;BME280;6172;42.646;23.344;2022-07-06T11:22:23;94567.63;;;27.17;66.63
12219;BME280;6172;42.646;23.344;2022-07-06T11:24:52;94563.13;;;26.85;67.86
12219;BME280;6172;42.646;23.344;2022-07-06T11:27:22;94567.28;;;26.38;69.62
12219;BME280;6172;42.646;23.344;2022-07-06T11:29:51;94557.00;;;26.57;70.01
12219;BME280;6172;42.646;23.344;2022-07-06T11:32:23;94555.84;;;26.71;70.42
12219;BME280;6172;42.646;23.344;2022-07-06T11:34:52;94554.78;;;26.50;71.79
12219;BME280;6172;42.646;23.344;2022-07-06T11:37:20;94561.28;;;26.58;68.69
12219;BME280;6172;42.646;23.344;2022-07-06T11:39:48;94559.00;;;26.27;71.14
12219;BME280;6172;42.646;23.344;2022-07-06T11:42:18;94552.47;;;26.13;72.75
12219;BME280;6172;42.646;23.344;2022-07-06T11:44:46;94543.94;;;25.94;73.74
12219;BME280;6172;42.646;23.344;2022-07-06T11:47:15;94532.41;;;26.15;70.42
12219;BME280;6172;42.646;23.344;2022-07-06T11:49:43;94545.88;;;26.10;69.95
12219;BME280;6172;42.646;23.344;2022-07-06T11:52:19;94526.72;;;26.26;68.16
12219;BME280;6172;42.646;23.344;2022-07-06T11:54:49;94536.19;;;26.23;65.63
12219;BME280;6172;42.646;23.344;2022-07-06T11:57:16;94532.38;;;26.20;65.73
12219;BME280;6172;42.646;23.344;2022-07-06T11:59:44;94531.53;;;26.31;65.73
12219;BME280;6172;42.646;23.344;2022-07-06T12:02:16;94518.94;;;26.13;66.59
12219;BME280;6172;42.646;23.344;2022-07-06T12:04:45;94523.34;;;26.38;66.97
12219;BME280;6172;42.646;23.344;2022-07-06T12:07:13;94518.44;;;26.50;68.45
12219;BME280;6172;42.646;23.344;2022-07-06T12:09:47;94529.31;;;26.24;67.17
12219;BME280;6172;42.646;23.344;2022-07-06T12:12:14;94518.19;;;26.48;63.71
12219;BME280;6172;42.646;23.344;2022-07-06T12:14:43;94526.03;;;26.20;68.27
12219;BME280;6172;42.646;23.344;2022-07-06T12:17:11;94521.69;;;26.54;65.17
12219;BME280;6172;42.646;23.344;2022-07-06T12:19:40;94517.47;;;26.42;67.22
12219;BME280;6172;42.646;23.344;2022-07-06T12:22:09;94524.91;;;25.93;69.30
12219;BME280;6172;42.646;23.344;2022-07-06T12:24:37;94526.78;;;25.79;70.17
12219;BME280;6172;42.646;23.344;2022-07-06T12:27:15;94532.44;;;25.63;73.47
12219;BME280;6172;42.646;23.344;2022-07-06T12:29:46;94529.03;;;25.86;69.54
12219;BME280;6172;42.646;23.344;2022-07-06T12:32:15;94526.50;;;25.83;71.03
12219;BME280;6172;42.646;23.344;2022-07-06T12:35:03;94523.75;;;25.77;70.08
12219;BME280;6172;42.646;23.344;2022-07-06T12:37:32;94518.63;;;25.81;67.90
12219;BME280;6172;42.646;23.344;2022-07-06T12:40:14;94518.50;;;26.03;65.92
12219;BME280;6172;42.646;23.344;2022-07-06T12:42:58;94515.09;;;25.81;69.08
12219;BME280;6172;42.646;23.344;2022-07-06T12:45:26;94512.81;;;26.20;68.88
12219;BME280;6172;42.646;23.344;2022-07-06T12:47:58;94506.00;;;26.10;69.69
12219;BME280;6172;42.646;23.344;2022-07-06T12:50:33;94503.72;;;26.08;67.60
12219;BME280;6172;42.646;23.344;2022-07-06T12:53:00;94510.59;;;26.07;68.89
12219;BME280;6172;42.646;23.344;2022-07-06T12:55:29;94493.59;;;26.05;63.15
12219;BME280;6172;42.646;23.344;2022-07-06T12:57:58;94507.03;;;26.07;66.89
12219;BME280;6172;42.646;23.344;2022-07-06T13:00:25;94503.97;;;26.10;66.78
12219;BME280;6172;42.646;23.344;2022-07-06T13:02:53;94496.88;;;26.15;67.02
12219;BME280;6172;42.646;23.344;2022-07-06T13:07:57;94510.94;;;25.93;64.30
12219;BME280;6172;42.646;23.344;2022-07-06T13:10:25;94503.13;;;25.86;66.67